Terminal Aerodrome Forecast
Issued by NWS

Home | Current Version | Previous Version | Graphics & Text | Print | Product List | Glossary On
Versions: 1 2 3 4 5 6 7 8 9 10 11 12 13 14 15 16 17 18 19 20 21 22 23 24 25 26 27 28 29 30 31
686
FTUS43 KABR 180049 AAA
TAFPIR
TAF AMD
KPIR 180049Z 1801/1824 VRB14G24KT P6SM -SHRA VCTS FEW030 BKN090CB
      OVC150
     FM180130 04010KT P6SM VCTS SCT100CB OVC200
     FM180200 33007KT P6SM BKN150
     FM180500 21006KT P6SM SCT200
     FM180600 17005KT P6SM SCT200
     FM180900 24004KT P6SM FEW250
     FM181400 30007KT P6SM FEW250
     FM181700 33011KT P6SM FEW200=

USA.gov is the U.S. government's official web portal to all federal, state and local government web resources and services.